Loon Lake, Washington
Current Conditions -  °F | °C
As of 8:53 AM on Friday 26 Dec 2014 (Local Time) from KDEW Reporting Station
Moderate Fog Moderate Fog  
Wind Chill: 25°   Ceiling: 200
Heat Index: 25°   Visibility: 0.25mi
Dew Point: 24°   Wind: 3mph
Humidity: 96%   Direction: 190°S
Pressure: 30.23"   Gusts: NA
Location:  48.06°N, 117.63°W
Report Text: KDEW 261653Z AUTO 19003KT 1/4SM FZFG VV002 M04/M04 A3023 RMK AO2 SLP265 T10391044
Loading
Personal Weather Stations






























Interactive Weather Map New forecast layout! Learn more

10-Day Weather Forecast

Advertisements
Track Severe Weather on mobile